createdAt,value
2022-08-19T04:06:48.267Z,99879.37
2022-08-19T04:09:52.954Z,99884.03
2022-08-19T04:12:55.523Z,99871.97
2022-08-19T04:15:58.292Z,99889.53
2022-08-19T04:19:02.684Z,99895.31
2022-08-19T04:22:06.139Z,99904.66
2022-08-19T04:25:09.186Z,99904.09
2022-08-19T04:28:13.719Z,99906.84
2022-08-19T04:31:18.951Z,99904.63
2022-08-19T04:34:25.072Z,99899.72
2022-08-19T04:37:34.900Z,99897.25
2022-08-19T04:41:06.493Z,99892.81
2022-08-19T04:44:09.472Z,99905.75
2022-08-19T04:47:12.518Z,99906.56
2022-08-19T04:50:15.843Z,99914.81
2022-08-19T04:53:20.515Z,99909.84
2022-08-19T04:56:23.698Z,99912.03
2022-08-19T04:59:26.605Z,99902.16
2022-08-19T05:02:30.409Z,99908.72
2022-08-19T05:05:33.555Z,99908.16
2022-08-19T05:08:48.412Z,99899.59
2022-08-19T05:11:54.539Z,99910.34
2022-08-19T05:14:59.014Z,99907.53
2022-08-19T05:18:20.443Z,99906.16
2022-08-19T05:21:42.780Z,99908.06
2022-08-19T05:25:09.251Z,99909.66
2022-08-19T05:28:08.283Z,99903.03
2022-08-19T05:31:11.374Z,99915.06
2022-08-19T05:34:20.162Z,99906.22
2022-08-19T05:37:24.309Z,99907.03
2022-08-19T05:40:26.917Z,99906.12
2022-08-19T05:43:32.273Z,99904.41
2022-08-19T05:46:38.953Z,99907.13
2022-08-19T05:49:43.317Z,99909.75
2022-08-19T05:52:50.093Z,99905.78
2022-08-19T05:55:53.635Z,99906.03
2022-08-19T05:59:00.121Z,99908.38
2022-08-19T06:02:05.152Z,99908.81
2022-08-19T06:05:10.115Z,99911.66
2022-08-19T06:08:12.685Z,99911.59
2022-08-19T06:11:19.398Z,99905.44
2022-08-19T06:14:27.848Z,99914.19
2022-08-19T06:17:31.887Z,99908.25
2022-08-19T06:20:54.895Z,99903.19
2022-08-19T06:23:59.310Z,99905.50
2022-08-19T06:27:02.081Z,99904.78
2022-08-19T06:30:05.883Z,99918.97
2022-08-19T06:33:08.516Z,99906.59
2022-08-19T06:36:34.836Z,99902.50
2022-08-19T06:39:39.661Z,99890.88
2022-08-19T06:42:43.280Z,99889.50
2022-08-19T06:45:56.869Z,99894.28
2022-08-19T06:49:02.149Z,99892.28
2022-08-19T06:52:06.672Z,99893.44
2022-08-19T06:55:09.720Z,99889.84
2022-08-19T06:58:12.535Z,99896.13
2022-08-19T07:01:16.309Z,99885.88
2022-08-19T07:04:22.664Z,99892.63
2022-08-19T07:07:26.175Z,99893.16
2022-08-19T07:10:28.718Z,99891.28
2022-08-19T07:13:37.888Z,99900.88
2022-08-19T07:16:43.037Z,99901.56
2022-08-19T07:19:46.096Z,99912.91
2022-08-19T07:22:50.377Z,99916.19
2022-08-19T07:25:53.471Z,99918.63
2022-08-19T07:28:58.493Z,99917.50
2022-08-19T07:32:03.172Z,99911.47
2022-08-19T07:35:07.400Z,99918.97
2022-08-19T07:38:10.636Z,99916.28
2022-08-19T07:41:16.608Z,99913.41
2022-08-19T07:44:21.772Z,99905.06
2022-08-19T07:47:58.450Z,99902.34
2022-08-19T07:50:49.397Z,99901.37
2022-08-19T07:53:52.079Z,99892.97
2022-08-19T07:56:55.582Z,99903.44
2022-08-19T07:59:58.309Z,99891.81
2022-08-19T08:03:01.292Z,99899.50
2022-08-19T08:06:28.099Z,99896.25
2022-08-19T08:09:35.548Z,99897.38
2022-08-19T08:12:42.410Z,99891.94
2022-08-19T08:15:45.995Z,99896.56
2022-08-19T08:18:50.225Z,99895.19
2022-08-19T08:21:56.161Z,99892.66
2022-08-19T08:25:04.140Z,99894.41
2022-08-19T08:28:11.409Z,99905.78
2022-08-19T08:31:21.141Z,99909.06
2022-08-19T08:34:23.732Z,99897.00
2022-08-19T08:37:26.540Z,99893.75
2022-08-19T08:40:38.882Z,99895.84
2022-08-19T08:43:45.646Z,99895.53
2022-08-19T08:46:57.027Z,99894.56
2022-08-19T08:50:05.494Z,99898.22
2022-08-19T08:53:11.374Z,99883.84
2022-08-19T08:56:16.959Z,99879.47
2022-08-19T08:59:33.394Z,99874.38
2022-08-19T09:02:36.208Z,99857.25
2022-08-19T09:06:00.343Z,99852.94
2022-08-19T09:09:12.450Z,99862.78
2022-08-19T09:12:27.037Z,99859.75
2022-08-19T09:15:36.822Z,99868.47
2022-08-19T09:18:49.834Z,99856.41
2022-08-19T09:21:53.057Z,99863.44
2022-08-19T09:24:56.376Z,99868.31
2022-08-19T09:28:05.902Z,99857.03
2022-08-19T09:31:27.255Z,99859.69
2022-08-19T09:34:30.402Z,99855.13
2022-08-19T09:37:41.197Z,99842.59
2022-08-19T09:40:44.130Z,99844.28
2022-08-19T09:43:50.186Z,99838.22
2022-08-19T09:46:53.269Z,99833.28
2022-08-19T09:49:56.011Z,99825.13
2022-08-19T09:52:59.464Z,99821.13
2022-08-19T09:56:04.042Z,99826.59
2022-08-19T09:59:07.721Z,99813.91
2022-08-19T10:02:11.936Z,99818.41
2022-08-19T10:05:34.156Z,99805.34
2022-08-19T10:08:37.944Z,99798.94
2022-08-19T10:11:46.980Z,99802.31
2022-08-19T10:14:55.539Z,99801.09
2022-08-19T10:18:00.256Z,99807.81
2022-08-19T10:21:14.567Z,99802.91
2022-08-19T10:24:18.539Z,99805.53
2022-08-19T10:27:21.649Z,99795.19
2022-08-19T10:30:24.865Z,99791.22
2022-08-19T10:33:42.571Z,99791.50
2022-08-19T10:36:56.323Z,99788.94
2022-08-19T10:40:06.514Z,99789.81
2022-08-19T10:43:09.677Z,99785.44
2022-08-19T10:46:18.677Z,99788.44
2022-08-19T10:49:22.209Z,99779.28
2022-08-19T10:52:34.681Z,99788.16
2022-08-19T10:56:00.433Z,99790.66
2022-08-19T10:59:04.251Z,99787.78
2022-08-19T11:02:10.878Z,99786.53
2022-08-19T11:05:15.838Z,99781.97
2022-08-19T11:08:23.000Z,99788.25
2022-08-19T11:11:26.695Z,99784.78
2022-08-19T11:14:32.223Z,99782.16
2022-08-19T11:17:36.999Z,99776.91
2022-08-19T11:20:40.572Z,99788.09
2022-08-19T11:23:43.194Z,99780.87
2022-08-19T11:26:46.421Z,99782.06
2022-08-19T11:29:49.575Z,99777.47
2022-08-19T11:32:52.462Z,99773.03
2022-08-19T11:35:55.250Z,99780.47
2022-08-19T11:38:58.079Z,99766.09
2022-08-19T11:42:03.723Z,99782.28
2022-08-19T11:45:07.080Z,99775.16
2022-08-19T11:48:09.999Z,99764.47
2022-08-19T11:51:16.810Z,99762.09
2022-08-19T11:54:19.567Z,99756.28
2022-08-19T11:57:22.669Z,99761.44
2022-08-19T12:00:25.343Z,99760.13
2022-08-19T12:03:28.909Z,99744.97
2022-08-19T12:06:35.543Z,99753.00
2022-08-19T12:09:42.166Z,99745.75
2022-08-19T12:12:46.679Z,99728.69
2022-08-19T12:15:59.205Z,99739.78
2022-08-19T12:19:05.077Z,99744.22
2022-08-19T12:22:08.622Z,99729.22
2022-08-19T12:25:12.724Z,99728.28
2022-08-19T12:28:16.034Z,99731.38
2022-08-19T12:31:20.434Z,99734.78
2022-08-19T12:34:23.310Z,99735.78
2022-08-19T12:37:26.221Z,99747.34
2022-08-19T12:40:29.382Z,99736.34
2022-08-19T12:43:32.464Z,99732.84
2022-08-19T12:46:35.469Z,99737.78
2022-08-19T12:49:52.370Z,99731.28
2022-08-19T12:52:59.079Z,99718.25
2022-08-19T12:56:01.643Z,99713.03
2022-08-19T12:59:05.771Z,99703.87
2022-08-19T13:02:08.796Z,99706.84
2022-08-19T13:05:17.001Z,99693.78
2022-08-19T13:08:19.702Z,99701.22
2022-08-19T13:11:25.385Z,99696.03
2022-08-19T13:14:28.107Z,99707.69
2022-08-19T13:17:31.000Z,99705.75
2022-08-19T13:20:34.146Z,99708.25
2022-08-19T13:23:37.145Z,99689.22
2022-08-19T13:26:39.724Z,99692.00
2022-08-19T13:30:01.798Z,99684.56
2022-08-19T13:33:11.583Z,99680.91
2022-08-19T13:36:14.361Z,99681.25
2022-08-19T13:39:17.700Z,99689.81
2022-08-19T13:42:20.531Z,99686.31
2022-08-19T13:45:25.386Z,99681.41
2022-08-19T13:48:28.665Z,99677.25
2022-08-19T13:51:34.200Z,99672.28
2022-08-19T13:54:37.091Z,99671.72
2022-08-19T13:57:40.015Z,99663.00
2022-08-19T14:00:45.618Z,99663.72
2022-08-19T14:03:49.229Z,99658.81
2022-08-19T14:06:51.786Z,99654.88
2022-08-19T14:09:54.776Z,99651.16
2022-08-19T14:12:59.541Z,99650.81
2022-08-19T14:16:03.074Z,99661.34
2022-08-19T14:19:05.803Z,99693.38
2022-08-19T14:22:08.964Z,99692.97
2022-08-19T14:25:17.306Z,99699.59
2022-08-19T14:28:20.389Z,99694.56
2022-08-19T14:31:30.828Z,99697.16
2022-08-19T14:34:34.719Z,99708.38
2022-08-19T14:37:45.392Z,99706.28
2022-08-19T14:40:49.923Z,99699.78
2022-08-19T14:43:54.056Z,99697.41
2022-08-19T14:46:56.937Z,99696.72
2022-08-19T14:50:00.432Z,99704.34
2022-08-19T14:53:27.729Z,99705.63
2022-08-19T14:56:31.728Z,99715.34
2022-08-19T14:59:36.221Z,99718.25
2022-08-19T15:02:39.555Z,99722.81
2022-08-19T15:05:42.257Z,99732.66
2022-08-19T15:08:45.894Z,99733.41
2022-08-19T15:11:50.629Z,99747.84
2022-08-19T15:14:55.976Z,99752.06
2022-08-19T15:18:03.425Z,99765.63
2022-08-19T15:21:06.404Z,99770.53
2022-08-19T15:24:10.158Z,99779.81
2022-08-19T15:27:13.884Z,99791.62
2022-08-19T15:30:22.905Z,99803.22
